Time;durP1;ratioP1;P1;durP2;ratioP2;P2;SDS_P1;SDS_P2;PMS_P1;PMS_P2;Temp;Humidity;BMP_temperature;BMP_pressure;BME280_temperature;BME280_humidity;BME280_pressure;Samples;Min_cycle;Max_cycle;Signal;HPM_P1;HPM_P2
2023/11/02 00:00:44;;;;;;;5.78;2.35;;;11.30;64.60;;;;;;5062238;28;20883;-75
2023/11/02 00:03:20;;;;;;;4.28;2.00;;;11.20;64.80;;;;;;5035770;28;20393;-72
2023/11/02 00:05:55;;;;;;;6.45;2.33;;;11.20;64.70;;;;;;5053728;28;20403;-74
2023/11/02 00:08:21;;;;;;;6.22;2.40;;;11.20;66.00;;;;;;5070101;28;20384;-74
2023/11/02 00:10:47;;;;;;;5.10;2.60;;;11.10;66.80;;;;;;5069936;28;20459;-74
2023/11/02 00:13:30;;;;;;;7.33;2.10;;;11.20;66.70;;;;;;5054841;28;20542;-73
2023/11/02 00:16:02;;;;;;;8.43;2.28;;;11.20;65.70;;;;;;5069323;28;20757;-75
2023/11/02 00:18:31;;;;;;;3.25;1.40;;;11.10;65.80;;;;;;5069866;28;20493;-72
2023/11/02 00:20:57;;;;;;;4.00;2.00;;;11.10;66.50;;;;;;5070761;28;20395;-75
2023/11/02 00:23:39;;;;;;;4.20;2.30;;;11.20;67.40;;;;;;5074285;28;20388;-74
2023/11/02 00:26:05;;;;;;;15.02;2.85;;;11.30;66.40;;;;;;5073551;28;20399;-75
2023/11/02 00:28:31;;;;;;;4.65;2.17;;;11.40;64.90;;;;;;5073797;28;20805;-74
2023/11/02 00:30:58;;;;;;;7.75;2.22;;;11.40;63.60;;;;;;5073328;28;20414;-74
2023/11/02 00:33:24;;;;;;;4.78;2.03;;;11.60;62.30;;;;;;5072811;28;20477;-73
2023/11/02 00:35:51;;;;;;;5.80;2.88;;;11.60;61.40;;;;;;5072835;28;20406;-74
2023/11/02 00:38:22;;;;;;;6.43;2.00;;;11.70;61.20;;;;;;5072212;28;20430;-73
2023/11/02 00:40:48;;;;;;;6.90;2.40;;;11.70;60.00;;;;;;5072570;28;20402;-73
2023/11/02 00:43:15;;;;;;;7.73;1.90;;;11.70;59.50;;;;;;5072789;28;20473;-73
2023/11/02 00:45:41;;;;;;;5.93;1.92;;;11.80;59.20;;;;;;5072730;28;20484;-73
2023/11/02 00:48:19;;;;;;;13.02;2.42;;;11.80;58.30;;;;;;5070614;28;20380;-73
2023/11/02 00:51:26;;;;;;;5.45;1.83;;;11.70;58.50;;;;;;5053482;28;20435;-73
2023/11/02 00:54:06;;;;;;;5.55;2.35;;;11.80;58.60;;;;;;5057692;28;20387;-74
2023/11/02 00:56:36;;;;;;;4.70;2.00;;;11.90;58.40;;;;;;5072378;28;20761;-74
2023/11/02 00:59:04;;;;;;;9.25;2.10;;;11.90;56.80;;;;;;5072697;28;20793;-73
2023/11/02 01:01:30;;;;;;;5.45;1.73;;;12.00;56.90;;;;;;5072627;28;20415;-74
2023/11/02 01:04:05;;;;;;;3.03;1.70;;;12.10;56.60;;;;;;5072593;28;21171;-74
2023/11/02 01:06:32;;;;;;;5.72;1.73;;;12.00;56.10;;;;;;5072209;28;20443;-73
2023/11/02 01:09:04;;;;;;;4.05;1.60;;;12.10;56.10;;;;;;5072713;28;20399;-74
2023/11/02 01:11:33;;;;;;;5.50;1.80;;;12.10;55.70;;;;;;5072242;28;20781;-74
2023/11/02 01:14:00;;;;;;;3.15;1.92;;;12.10;54.80;;;;;;5072390;28;20386;-74
2023/11/02 01:16:27;;;;;;;3.17;1.80;;;12.20;55.00;;;;;;5071867;28;20449;-73
2023/11/02 01:18:56;;;;;;;3.60;1.60;;;12.20;54.00;;;;;;5072275;28;20407;-72
2023/11/02 01:21:22;;;;;;;6.72;1.70;;;12.10;54.50;;;;;;5072005;28;20799;-72
2023/11/02 01:23:59;;;;;;;4.85;2.00;;;12.10;54.20;;;;;;5074046;28;20436;-73
2023/11/02 01:26:54;;;;;;;5.47;1.90;;;12.10;55.50;;;;;;5071901;28;20408;-73
2023/11/02 01:29:19;;;;;;;5.50;2.35;;;12.10;53.90;;;;;;5069101;28;20391;-73
2023/11/02 01:31:45;;;;;;;4.60;2.03;;;12.10;54.30;;;;;;5071459;28;20388;-72
2023/11/02 01:34:23;;;;;;;4.20;1.70;;;12.20;55.00;;;;;;5053653;28;20936;-73
2023/11/02 01:36:52;;;;;;;3.78;1.88;;;12.20;55.30;;;;;;5071609;28;20726;-73
2023/11/02 01:39:21;;;;;;;6.13;1.63;;;12.20;54.60;;;;;;5071979;28;20396;-74
2023/11/02 01:41:51;;;;;;;5.07;1.77;;;12.20;53.90;;;;;;5071198;28;20445;-71
2023/11/02 01:44:28;;;;;;;2.83;1.27;;;12.20;51.90;;;;;;5071570;28;20391;-74
2023/11/02 01:47:09;;;;;;;5.50;1.60;;;12.20;52.50;;;;;;5071432;28;20406;-74
2023/11/02 01:49:54;;;;;;;5.10;1.88;;;12.30;52.80;;;;;;5072039;28;20445;-74
2023/11/02 01:52:48;;;;;;;5.73;1.50;;;12.30;51.50;;;;;;5071445;28;20866;-74
2023/11/02 01:55:35;;;;;;;4.22;1.80;;;12.20;52.20;;;;;;5071334;28;20423;-73
2023/11/02 01:58:18;;;;;;;6.68;1.60;;;12.20;51.90;;;;;;5072052;28;20441;-74
2023/11/02 02:00:59;;;;;;;3.75;1.80;;;12.30;52.50;;;;;;5071657;28;20407;-73
2023/11/02 02:03:30;;;;;;;2.47;1.40;;;12.20;51.90;;;;;;5071451;28;20402;-74
2023/11/02 02:06:13;;;;;;;4.47;1.88;;;12.30;51.10;;;;;;5071328;28;20407;-74
2023/11/02 02:09:01;;;;;;;6.97;1.90;;;12.30;51.50;;;;;;5071810;28;20399;-73
2023/11/02 02:11:53;;;;;;;4.97;1.60;;;12.30;51.10;;;;;;5071759;28;20407;-73
2023/11/02 02:14:51;;;;;;;7.00;1.60;;;12.30;51.90;;;;;;5074972;28;20469;-74
2023/11/02 02:17:19;;;;;;;7.10;1.70;;;12.10;51.90;;;;;;5058238;28;20747;-75
2023/11/02 02:20:01;;;;;;;6.90;1.88;;;12.20;51.80;;;;;;5059408;28;20392;-73
2023/11/02 02:22:44;;;;;;;3.63;1.58;;;12.20;51.70;;;;;;5078508;28;20387;-75
2023/11/02 02:25:34;;;;;;;7.47;1.90;;;12.10;52.60;;;;;;5080985;28;20415;-72
2023/11/02 02:28:16;;;;;;;2.67;1.47;;;12.20;52.90;;;;;;5077053;28;20765;-74
2023/11/02 02:31:02;;;;;;;6.90;1.80;;;12.20;51.90;;;;;;5054829;28;20728;-73
2023/11/02 02:33:54;;;;;;;6.23;2.27;;;12.20;52.40;;;;;;5040168;28;20439;-73
2023/11/02 02:36:48;;;;;;;8.10;1.60;;;12.30;51.90;;;;;;5061310;28;20399;-73
2023/11/02 02:39:20;;;;;;;8.25;2.03;;;12.20;51.70;;;;;;5067195;28;20396;-73
2023/11/02 02:41:50;;;;;;;7.15;1.80;;;12.20;52.40;;;;;;5053320;28;20925;-74
2023/11/02 02:44:18;;;;;;;6.93;2.30;;;12.20;52.40;;;;;;5062769;28;20404;-74
2023/11/02 02:46:43;;;;;;;4.72;1.85;;;12.20;52.90;;;;;;5070842;28;20980;-74
2023/11/02 02:49:09;;;;;;;3.30;1.88;;;12.20;52.20;;;;;;5070617;28;20431;-73
2023/11/02 02:51:36;;;;;;;5.13;1.80;;;12.20;52.10;;;;;;5052855;28;20402;-75
2023/11/02 02:54:10;;;;;;;5.93;2.60;;;12.20;52.50;;;;;;5069038;28;20770;-73
2023/11/02 02:56:39;;;;;;;6.88;2.00;;;12.20;52.20;;;;;;5070922;28;20390;-72
2023/11/02 02:59:08;;;;;;;4.82;2.00;;;12.20;52.50;;;;;;5070692;28;20399;-72
2023/11/02 03:01:38;;;;;;;9.02;2.10;;;12.20;52.70;;;;;;5070609;28;20391;-74
2023/11/02 03:04:13;;;;;;;7.03;2.38;;;12.20;53.50;;;;;;5070577;28;20868;-74
2023/11/02 03:06:44;;;;;;;6.68;2.38;;;12.30;52.30;;;;;;5070093;28;20418;-73
2023/11/02 03:09:16;;;;;;;3.90;1.77;;;12.20;53.00;;;;;;5070758;28;20399;-74
2023/11/02 03:11:44;;;;;;;3.10;1.80;;;12.30;52.30;;;;;;5070672;28;20494;-74
2023/11/02 03:14:13;;;;;;;7.40;2.17;;;12.30;51.60;;;;;;5070402;28;20387;-74
2023/11/02 03:16:41;;;;;;;6.05;2.10;;;12.30;51.40;;;;;;5071005;28;20395;-74
2023/11/02 03:19:08;;;;;;;5.33;2.20;;;12.30;52.20;;;;;;5070477;28;20395;-74
2023/11/02 03:21:33;;;;;;;5.70;2.20;;;12.30;51.60;;;;;;5070246;28;20465;-72
2023/11/02 03:24:05;;;;;;;5.93;2.40;;;12.30;51.20;;;;;;5070431;28;20400;-73
2023/11/02 03:27:06;;;;;;;9.38;2.42;;;12.30;52.00;;;;;;5070622;28;20479;-74
2023/11/02 03:29:58;;;;;;;4.07;2.10;;;12.40;51.20;;;;;;5037921;28;20901;-75
2023/11/02 03:32:36;;;;;;;7.50;2.50;;;12.40;51.70;;;;;;5055789;28;20406;-74
2023/11/02 03:35:18;;;;;;;5.28;2.10;;;12.40;51.60;;;;;;5070231;28;20408;-74
2023/11/02 03:38:09;;;;;;;12.82;2.50;;;12.40;51.00;;;;;;5070143;28;20399;-73
2023/11/02 03:40:59;;;;;;;4.68;2.00;;;12.50;52.50;;;;;;5083190;23;20407;-73
2023/11/02 03:43:31;;;;;;;7.30;2.25;;;12.50;51.00;;;;;;5069475;28;20400;-69
2023/11/02 03:46:19;;;;;;;6.13;2.42;;;12.50;51.80;;;;;;5069579;28;20566;-70
2023/11/02 03:49:10;;;;;;;5.63;2.20;;;12.40;51.70;;;;;;5068693;28;20749;-70
2023/11/02 03:52:13;;;;;;;5.20;2.23;;;12.40;51.70;;;;;;5069670;28;20403;-70
2023/11/02 03:55:09;;;;;;;6.40;2.15;;;12.50;50.90;;;;;;5063971;28;20443;-70
2023/11/02 03:57:58;;;;;;;5.38;2.10;;;12.40;51.70;;;;;;5071426;28;20388;-69
2023/11/02 04:00:25;;;;;;;4.90;2.00;;;12.50;49.50;;;;;;5073182;28;20399;-70
2023/11/02 04:03:00;;;;;;;7.30;1.90;;;12.50;50.50;;;;;;5073334;28;20383;-71
2023/11/02 04:05:28;;;;;;;7.30;1.80;;;12.50;50.10;;;;;;5053429;28;20567;-70
2023/11/02 04:08:18;;;;;;;4.07;1.85;;;12.50;48.40;;;;;;5070136;28;20482;-70
2023/11/02 04:10:57;;;;;;;6.10;1.73;;;12.50;48.80;;;;;;5054870;28;20913;-71
2023/11/02 04:13:37;;;;;;;6.63;2.40;;;12.60;47.20;;;;;;5053572;28;20901;-70
2023/11/02 04:16:04;;;;;;;6.00;1.70;;;12.50;48.30;;;;;;5054434;28;20387;-70
2023/11/02 04:18:29;;;;;;;7.78;1.60;;;12.50;47.40;;;;;;5054198;28;20796;-70
2023/11/02 04:20:55;;;;;;;7.22;1.92;;;12.60;46.70;;;;;;5055117;28;20432;-70
2023/11/02 04:23:22;;;;;;;6.85;2.20;;;12.60;47.40;;;;;;5065898;28;20395;-70
2023/11/02 04:25:50;;;;;;;7.53;1.77;;;12.60;46.00;;;;;;5072318;28;20403;-70
2023/11/02 04:28:19;;;;;;;2.90;1.50;;;12.60;45.50;;;;;;5072936;28;20815;-70
2023/11/02 04:30:46;;;;;;;5.95;1.95;;;12.60;45.50;;;;;;5072262;28;20441;-70
2023/11/02 04:33:12;;;;;;;3.50;1.90;;;12.60;45.50;;;;;;5072837;28;20387;-72
2023/11/02 04:35:38;;;;;;;9.48;2.00;;;12.60;45.40;;;;;;5047525;28;20400;-72
2023/11/02 04:38:08;;;;;;;6.63;1.77;;;12.60;46.00;;;;;;5067118;28;20396;-72
2023/11/02 04:40:35;;;;;;;6.75;1.90;;;12.60;44.90;;;;;;5054479;28;20496;-73
2023/11/02 04:43:01;;;;;;;3.80;1.60;;;12.70;46.20;;;;;;5072691;28;20772;-73
2023/11/02 04:45:28;;;;;;;6.57;1.80;;;12.60;44.90;;;;;;5064906;28;20433;-70
2023/11/02 04:47:54;;;;;;;5.78;1.80;;;12.60;45.90;;;;;;5054084;28;20397;-70
2023/11/02 04:50:20;;;;;;;4.75;1.60;;;12.60;45.10;;;;;;5053922;28;20401;-71
2023/11/02 04:52:46;;;;;;;4.68;1.60;;;12.60;45.00;;;;;;5052817;28;20404;-70
2023/11/02 04:55:12;;;;;;;7.80;2.10;;;12.50;44.70;;;;;;5065228;28;20957;-71
2023/11/02 04:57:38;;;;;;;6.13;2.20;;;12.50;45.00;;;;;;5052475;28;20506;-71
2023/11/02 05:00:04;;;;;;;3.37;1.50;;;12.40;46.90;;;;;;5067267;28;20792;-71
2023/11/02 05:02:31;;;;;;;6.15;1.50;;;12.40;44.90;;;;;;5055644;28;20758;-71
2023/11/02 05:04:57;;;;;;;7.47;1.80;;;12.50;44.40;;;;;;5071372;28;20392;-70
2023/11/02 05:07:22;;;;;;;5.13;1.90;;;12.50;44.00;;;;;;5051749;28;20485;-71
2023/11/02 05:09:48;;;;;;;8.25;1.80;;;12.50;43.90;;;;;;5052412;28;20389;-71
2023/11/02 05:12:14;;;;;;;4.63;1.50;;;12.50;43.60;;;;;;5052306;28;20409;-72
2023/11/02 05:14:39;;;;;;;5.93;1.60;;;12.50;43.40;;;;;;5053054;28;20400;-71
2023/11/02 05:17:05;;;;;;;3.58;1.35;;;12.50;42.90;;;;;;5052327;28;20737;-72
2023/11/02 05:19:31;;;;;;;6.43;1.70;;;12.50;42.50;;;;;;5052946;28;20412;-71
2023/11/02 05:21:57;;;;;;;5.57;1.52;;;12.60;45.60;;;;;;5055092;28;20401;-73
2023/11/02 05:24:22;;;;;;;7.20;1.70;;;12.60;45.30;;;;;;5054222;28;20416;-72
2023/11/02 05:26:48;;;;;;;6.43;1.80;;;12.60;43.50;;;;;;5052689;28;20405;-72
2023/11/02 05:29:13;;;;;;;10.57;1.80;;;12.60;42.80;;;;;;5062474;28;20391;-71
2023/11/02 05:31:39;;;;;;;3.92;1.40;;;12.60;42.80;;;;;;5071534;28;20391;-71
2023/11/02 05:34:05;;;;;;;6.50;1.70;;;12.60;42.60;;;;;;5057417;28;20395;-71
2023/11/02 05:36:30;;;;;;;5.38;1.30;;;12.60;43.40;;;;;;5063200;28;20815;-70
2023/11/02 05:38:56;;;;;;;6.03;1.80;;;12.70;42.70;;;;;;5064043;28;20392;-70
2023/11/02 05:41:22;;;;;;;9.73;1.40;;;12.70;43.00;;;;;;5071299;28;20395;-70
2023/11/02 05:43:47;;;;;;;7.18;1.70;;;12.70;42.50;;;;;;5068377;28;20444;-69
2023/11/02 05:46:13;;;;;;;9.45;1.95;;;12.70;43.20;;;;;;5058559;28;20469;-71
2023/11/02 05:48:39;;;;;;;5.07;1.37;;;12.70;44.80;;;;;;5071682;28;20391;-72
2023/11/02 05:51:05;;;;;;;6.10;1.30;;;12.60;43.60;;;;;;5053415;28;20396;-70
2023/11/02 05:53:30;;;;;;;8.13;1.40;;;12.70;42.90;;;;;;5058944;28;20394;-72
2023/11/02 05:55:56;;;;;;;4.47;1.30;;;12.60;44.20;;;;;;5060402;28;20392;-70
2023/11/02 05:58:22;;;;;;;2.33;1.10;;;12.70;43.70;;;;;;5068048;28;20515;-71
2023/11/02 06:00:48;;;;;;;5.65;1.45;;;12.70;43.00;;;;;;5051963;28;20398;-71
2023/11/02 06:03:14;;;;;;;5.00;1.50;;;12.70;42.60;;;;;;5052014;28;20425;-73
2023/11/02 06:05:39;;;;;;;5.33;1.47;;;12.70;43.10;;;;;;5063960;28;20487;-71
2023/11/02 06:08:05;;;;;;;7.63;1.50;;;12.70;42.60;;;;;;5071490;28;20432;-71
2023/11/02 06:10:30;;;;;;;5.20;1.40;;;12.80;41.90;;;;;;5053460;28;20451;-71
2023/11/02 06:12:57;;;;;;;4.45;1.10;;;12.80;42.40;;;;;;5062595;28;20932;-72
2023/11/02 06:15:22;;;;;;;6.87;1.57;;;12.80;41.90;;;;;;5070585;28;20392;-71
2023/11/02 06:17:48;;;;;;;2.20;1.20;;;12.90;41.40;;;;;;5071570;28;20907;-71
2023/11/02 06:20:13;;;;;;;7.90;1.60;;;12.90;41.20;;;;;;5060634;28;20401;-70
2023/11/02 06:22:40;;;;;;;4.33;1.30;;;13.10;41.20;;;;;;5052654;28;20836;-72
2023/11/02 06:25:06;;;;;;;6.13;1.40;;;13.10;41.10;;;;;;5061952;28;20906;-72
2023/11/02 06:27:32;;;;;;;4.63;1.20;;;13.00;41.50;;;;;;5053522;28;20405;-72
2023/11/02 06:29:57;;;;;;;4.65;1.33;;;13.10;41.70;;;;;;5065223;28;20473;-72
2023/11/02 06:32:23;;;;;;;5.70;1.30;;;13.20;41.50;;;;;;5051455;28;20799;-72
2023/11/02 06:34:48;;;;;;;5.60;1.20;;;13.20;41.00;;;;;;5061213;28;20941;-72
2023/11/02 06:37:18;;;;;;;6.17;1.50;;;13.20;41.00;;;;;;5068568;28;20893;-70
2023/11/02 06:39:48;;;;;;;4.28;1.45;;;13.20;40.60;;;;;;5061407;28;21037;-72
2023/11/02 06:42:13;;;;;;;4.40;1.40;;;13.20;41.60;;;;;;5070511;28;20418;-73
2023/11/02 06:44:43;;;;;;;1.97;1.40;;;13.20;41.40;;;;;;5070282;28;20392;-71
2023/11/02 06:47:10;;;;;;;5.70;1.45;;;13.20;42.40;;;;;;5053649;28;20395;-71
2023/11/02 06:49:36;;;;;;;3.97;1.25;;;13.20;42.90;;;;;;5050312;28;20386;-71
2023/11/02 06:52:02;;;;;;;11.70;1.50;;;13.30;43.80;;;;;;5065174;28;20884;-72
2023/11/02 06:54:28;;;;;;;5.20;1.35;;;13.20;42.80;;;;;;5065267;28;20396;-71
2023/11/02 06:56:54;;;;;;;2.47;1.27;;;13.20;43.00;;;;;;5068804;28;20403;-70
2023/11/02 06:59:19;;;;;;;3.83;1.40;;;13.20;44.30;;;;;;5050817;28;20393;-71
2023/11/02 07:01:46;;;;;;;2.87;1.03;;;13.20;44.30;;;;;;5061691;28;20391;-71
2023/11/02 07:04:12;;;;;;;8.70;1.23;;;13.20;44.40;;;;;;5070009;28;20453;-71
2023/11/02 07:06:38;;;;;;;7.13;1.20;;;13.20;45.00;;;;;;5053229;28;20409;-71
2023/11/02 07:09:04;;;;;;;4.03;1.10;;;13.10;46.10;;;;;;5070011;28;20392;-71
2023/11/02 07:11:30;;;;;;;3.13;1.20;;;13.10;49.10;;;;;;5066381;28;20428;-70
2023/11/02 07:13:56;;;;;;;4.55;1.13;;;13.00;52.30;;;;;;5069475;28;20751;-70
2023/11/02 07:16:22;;;;;;;6.03;1.38;;;12.90;53.60;;;;;;5064701;28;20486;-71
2023/11/02 07:18:47;;;;;;;5.28;1.30;;;12.80;53.30;;;;;;5050041;28;20559;-71
2023/11/02 07:21:13;;;;;;;8.87;1.90;;;12.70;54.70;;;;;;5039450;28;20389;-71
2023/11/02 07:23:39;;;;;;;2.30;1.50;;;12.60;57.70;;;;;;5050943;28;20431;-72
2023/11/02 07:26:08;;;;;;;2.70;1.40;;;12.50;60.00;;;;;;5058211;28;20405;-72
2023/11/02 07:28:34;;;;;;;2.97;1.30;;;12.40;62.30;;;;;;5071349;28;20403;-73
2023/11/02 07:31:00;;;;;;;3.80;1.10;;;12.50;59.60;;;;;;5062809;28;20412;-73
2023/11/02 07:33:26;;;;;;;4.53;1.17;;;12.40;60.90;;;;;;5062555;28;20411;-71
2023/11/02 07:35:52;;;;;;;3.47;1.27;;;12.50;60.30;;;;;;5073303;28;20865;-71
2023/11/02 07:38:18;;;;;;;4.47;1.50;;;12.50;59.80;;;;;;5077115;28;20394;-71
2023/11/02 07:40:44;;;;;;;2.70;1.10;;;12.50;59.20;;;;;;5070323;28;20478;-71
2023/11/02 07:43:10;;;;;;;2.33;1.10;;;12.50;59.30;;;;;;5067195;28;20464;-71
2023/11/02 07:45:35;;;;;;;3.88;1.20;;;12.50;60.10;;;;;;5067815;28;20401;-70
2023/11/02 07:48:02;;;;;;;3.05;1.33;;;12.50;59.70;;;;;;5042847;28;20419;-71
2023/11/02 07:50:28;;;;;;;13.70;1.50;;;12.50;59.20;;;;;;5064103;28;20906;-71
2023/11/02 07:52:53;;;;;;;4.70;1.03;;;12.60;59.20;;;;;;5070002;28;20498;-72
2023/11/02 07:55:19;;;;;;;2.92;1.20;;;12.60;58.90;;;;;;5076589;28;20390;-73
2023/11/02 07:57:47;;;;;;;3.80;1.10;;;12.60;59.70;;;;;;5075396;28;20399;-71
2023/11/02 08:00:15;;;;;;;3.43;1.30;;;12.60;59.60;;;;;;5076848;28;20507;-74
2023/11/02 08:02:40;;;;;;;3.00;1.30;;;12.60;59.00;;;;;;5074198;28;20416;-72
2023/11/02 08:05:06;;;;;;;2.60;1.30;;;12.60;59.50;;;;;;5065459;28;20411;-72
2023/11/02 08:07:32;;;;;;;3.30;1.30;;;12.70;59.60;;;;;;5067540;28;20404;-75
2023/11/02 08:09:58;;;;;;;3.35;1.45;;;12.70;59.00;;;;;;5058517;28;20381;-75
2023/11/02 08:12:23;;;;;;;2.38;1.52;;;12.60;59.20;;;;;;5062943;28;20499;-74
2023/11/02 08:14:49;;;;;;;5.13;1.30;;;12.60;60.80;;;;;;5058048;28;20460;-74
2023/11/02 08:17:17;;;;;;;3.72;1.50;;;12.70;59.60;;;;;;5075241;28;20383;-75
2023/11/02 08:19:45;;;;;;;4.07;1.65;;;12.70;58.40;;;;;;5057475;28;20979;-74
2023/11/02 08:22:11;;;;;;;1.52;1.20;;;12.70;58.80;;;;;;5075322;28;20475;-73
2023/11/02 08:24:38;;;;;;;2.35;1.45;;;12.80;57.90;;;;;;5074659;28;20437;-73
2023/11/02 08:27:05;;;;;;;1.80;1.10;;;12.80;57.90;;;;;;5074554;28;20450;-73
2023/11/02 08:29:31;;;;;;;2.38;1.35;;;12.70;57.50;;;;;;5073096;28;20375;-73
2023/11/02 08:31:57;;;;;;;3.80;1.30;;;12.80;58.20;;;;;;5074345;28;20441;-73
2023/11/02 08:34:23;;;;;;;5.25;1.70;;;12.70;58.00;;;;;;5074577;28;20813;-74
2023/11/02 08:36:48;;;;;;;6.10;1.83;;;12.80;57.70;;;;;;5074268;28;20470;-74
2023/11/02 08:39:14;;;;;;;3.70;1.60;;;12.80;57.30;;;;;;5074394;28;20395;-74
2023/11/02 08:41:39;;;;;;;2.67;1.30;;;12.90;56.30;;;;;;5054047;28;20441;-74
2023/11/02 08:44:06;;;;;;;2.93;1.50;;;13.00;55.80;;;;;;5071392;28;20458;-74
2023/11/02 08:46:36;;;;;;;3.00;1.30;;;13.10;54.60;;;;;;5070998;28;20948;-74
2023/11/02 08:49:02;;;;;;;1.98;1.40;;;13.20;53.70;;;;;;5053372;28;20448;-74
2023/11/02 08:51:28;;;;;;;4.05;1.50;;;13.30;53.90;;;;;;5072103;28;20384;-75
2023/11/02 08:53:54;;;;;;;6.05;1.40;;;13.30;53.20;;;;;;5070836;28;20392;-75
2023/11/02 08:56:20;;;;;;;1.40;1.10;;;13.10;53.60;;;;;;5071435;28;20409;-75
2023/11/02 08:58:50;;;;;;;3.42;1.55;;;13.00;55.70;;;;;;5071556;28;20897;-73
2023/11/02 09:01:24;;;;;;;4.60;1.37;;;12.90;55.90;;;;;;5071398;28;20486;-75
2023/11/02 09:03:51;;;;;;;2.20;1.10;;;12.70;57.50;;;;;;5070948;28;20395;-73
2023/11/02 09:06:19;;;;;;;2.60;1.38;;;12.70;58.10;;;;;;5053374;28;20452;-74
2023/11/02 09:08:44;;;;;;;1.67;1.27;;;12.70;58.60;;;;;;5050642;28;20385;-74
2023/11/02 09:11:10;;;;;;;2.40;1.50;;;12.80;58.50;;;;;;5040208;28;20407;-74
2023/11/02 09:13:35;;;;;;;4.10;1.30;;;12.90;56.00;;;;;;5071240;28;20387;-74
2023/11/02 09:16:01;;;;;;;3.88;1.65;;;13.00;55.40;;;;;;5071171;28;20406;-74
2023/11/02 09:18:26;;;;;;;3.75;1.45;;;13.00;56.60;;;;;;5070542;28;20384;-75
2023/11/02 09:20:52;;;;;;;1.70;1.20;;;12.90;55.70;;;;;;5070636;28;20395;-75
2023/11/02 09:23:18;;;;;;;2.88;1.27;;;13.00;55.10;;;;;;5070389;28;20387;-75
2023/11/02 09:25:46;;;;;;;2.47;1.17;;;13.10;55.80;;;;;;5068413;28;20422;-73
2023/11/02 09:28:13;;;;;;;2.20;1.27;;;13.30;54.10;;;;;;5069163;28;20846;-72
2023/11/02 09:30:40;;;;;;;2.80;1.50;;;13.50;53.00;;;;;;5068043;28;20396;-72
2023/11/02 09:33:06;;;;;;;3.03;1.20;;;13.70;51.00;;;;;;5052243;28;20392;-73
2023/11/02 09:35:32;;;;;;;2.70;1.30;;;13.90;50.40;;;;;;5070154;28;20395;-75
2023/11/02 09:37:57;;;;;;;4.00;1.40;;;14.10;48.80;;;;;;5070561;28;20410;-75
2023/11/02 09:40:23;;;;;;;3.30;1.20;;;14.20;48.80;;;;;;5070261;28;20395;-74
2023/11/02 09:42:50;;;;;;;6.80;1.40;;;14.30;47.20;;;;;;5058836;28;20406;-73
2023/11/02 09:45:16;;;;;;;2.00;1.20;;;14.40;47.40;;;;;;5049854;28;20412;-74
2023/11/02 09:47:42;;;;;;;2.67;1.15;;;14.40;46.30;;;;;;5050661;28;20397;-74
2023/11/02 09:50:08;;;;;;;2.25;1.10;;;14.40;46.50;;;;;;5070150;28;20890;-74
2023/11/02 09:52:34;;;;;;;8.00;1.50;;;14.40;46.90;;;;;;5070143;28;20430;-74
2023/11/02 09:55:01;;;;;;;4.63;1.40;;;14.50;46.00;;;;;;5069675;28;20396;-73
2023/11/02 09:57:27;;;;;;;3.60;1.30;;;14.40;46.70;;;;;;5069885;28;20406;-75
2023/11/02 09:59:53;;;;;;;4.20;1.70;;;14.40;47.40;;;;;;5069974;28;20427;-74
2023/11/02 10:02:22;;;;;;;3.80;1.90;;;14.40;46.90;;;;;;5069507;28;20466;-74
2023/11/02 10:04:47;;;;;;;6.80;1.47;;;14.40;47.40;;;;;;5051452;28;20398;-74
2023/11/02 10:07:13;;;;;;;4.90;1.50;;;14.40;47.20;;;;;;5069487;28;20741;-74
2023/11/02 10:09:41;;;;;;;5.85;1.50;;;14.50;45.80;;;;;;5069260;28;20858;-74
2023/11/02 10:12:06;;;;;;;6.25;1.63;;;14.60;46.10;;;;;;5069913;28;20387;-74
2023/11/02 10:14:34;;;;;;;3.00;1.40;;;14.70;46.10;;;;;;5069518;28;20438;-74
2023/11/02 10:17:04;;;;;;;5.05;1.80;;;14.70;46.10;;;;;;5050999;28;20478;-75
2023/11/02 10:19:31;;;;;;;3.53;1.70;;;14.80;44.60;;;;;;5050902;28;20897;-75
2023/11/02 10:21:57;;;;;;;5.53;1.90;;;14.80;45.00;;;;;;5063813;28;20449;-75
2023/11/02 10:24:32;;;;;;;8.00;1.77;;;14.80;44.70;;;;;;5068809;28;20412;-75
2023/11/02 10:26:59;;;;;;;5.03;1.60;;;14.90;44.30;;;;;;5068784;28;20446;-75
2023/11/02 10:29:25;;;;;;;4.55;1.60;;;14.80;44.50;;;;;;5067873;28;20720;-74
2023/11/02 10:31:54;;;;;;;3.83;1.75;;;14.80;44.80;;;;;;5069551;28;20379;-74
2023/11/02 10:34:20;;;;;;;5.35;1.50;;;14.90;44.90;;;;;;5051247;28;20384;-74
2023/11/02 10:36:51;;;;;;;4.82;1.73;;;15.10;42.50;;;;;;5070139;28;20407;-74
2023/11/02 10:39:21;;;;;;;4.65;1.50;;;15.30;40.20;;;;;;5070363;28;20390;-73
2023/11/02 10:42:06;;;;;;;7.32;1.70;;;15.50;39.50;;;;;;5069149;28;20407;-73
2023/11/02 10:44:34;;;;;;;9.63;2.20;;;15.80;35.60;;;;;;5069237;28;20482;-74
2023/11/02 10:47:04;;;;;;;10.18;1.85;;;16.00;34.40;;;;;;5070155;28;20399;-74
2023/11/02 10:49:36;;;;;;;4.20;1.20;;;16.00;32.40;;;;;;5064679;28;20400;-74
2023/11/02 10:52:08;;;;;;;11.75;1.80;;;16.00;30.20;;;;;;5069203;28;20451;-74
2023/11/02 10:55:08;;;;;;;8.10;1.98;;;16.10;29.60;;;;;;5073237;28;20391;-73
2023/11/02 10:57:35;;;;;;;7.85;1.90;;;16.20;29.40;;;;;;5069836;28;20723;-74
2023/11/02 11:00:04;;;;;;;6.50;1.83;;;16.50;29.50;;;;;;5070620;28;20375;-74
2023/11/02 11:02:30;;;;;;;10.25;2.33;;;16.50;29.10;;;;;;5070732;28;20470;-72
2023/11/02 11:04:57;;;;;;;11.63;2.38;;;16.50;29.80;;;;;;5070605;28;20444;-74
2023/11/02 11:07:23;;;;;;;8.15;2.10;;;16.50;29.20;;;;;;5070608;28;20442;-74
2023/11/02 11:09:50;;;;;;;9.03;2.23;;;16.40;29.00;;;;;;5070953;28;20877;-74
2023/11/02 11:12:19;;;;;;;8.45;2.10;;;16.40;29.60;;;;;;5053571;28;20462;-71
2023/11/02 11:14:46;;;;;;;8.15;1.92;;;16.30;29.30;;;;;;5050256;28;20475;-74
2023/11/02 11:17:12;;;;;;;9.82;2.10;;;16.30;29.10;;;;;;5037549;28;20768;-74
2023/11/02 11:19:39;;;;;;;9.93;2.05;;;16.20;28.90;;;;;;5066386;28;20866;-73
2023/11/02 11:22:27;;;;;;;9.07;1.60;;;16.30;28.40;;;;;;5069712;28;20398;-74
2023/11/02 11:25:03;;;;;;;6.80;2.10;;;16.30;27.90;;;;;;5050636;28;20962;-75
2023/11/02 11:27:36;;;;;;;10.30;1.90;;;16.40;27.60;;;;;;5051205;28;20413;-74
2023/11/02 11:30:04;;;;;;;12.07;2.28;;;16.30;26.70;;;;;;5052560;28;20381;-75
2023/11/02 11:32:35;;;;;;;6.90;1.80;;;16.20;26.60;;;;;;5051284;28;20377;-74
2023/11/02 11:35:09;;;;;;;7.82;2.50;;;16.10;27.00;;;;;;5060427;28;20758;-74
2023/11/02 11:40:20;;;;;;;10.20;2.27;;;16.20;27.10;;;;;;5063642;28;20386;-74
2023/11/02 11:43:01;;;;;;;9.68;2.00;;;16.20;25.30;;;;;;5058519;28;20467;-74
2023/11/02 11:45:33;;;;;;;6.57;1.85;;;16.20;25.50;;;;;;5068484;28;20418;-73
2023/11/02 11:48:03;;;;;;;8.38;2.22;;;16.30;25.80;;;;;;5079092;28;20384;-76
2023/11/02 11:50:30;;;;;;;12.43;2.10;;;16.40;24.80;;;;;;5078737;28;20384;-74
2023/11/02 11:53:11;;;;;;;9.35;2.10;;;16.50;24.70;;;;;;5079366;28;20437;-74
2023/11/02 11:55:37;;;;;;;7.53;1.85;;;16.70;23.80;;;;;;5074405;28;20380;-73
2023/11/02 11:58:04;;;;;;;9.82;1.90;;;16.80;23.00;;;;;;5038860;28;20463;-73
2023/11/02 12:00:30;;;;;;;10.80;2.33;;;17.00;21.50;;;;;;5054937;28;20393;-73
2023/11/02 12:02:57;;;;;;;7.60;1.90;;;17.10;20.60;;;;;;5053249;28;20401;-74
2023/11/02 12:05:44;;;;;;;7.80;1.88;;;17.30;20.70;;;;;;5052394;28;20417;-73
2023/11/02 12:08:11;;;;;;;8.20;1.75;;;17.50;19.90;;;;;;5052799;28;20381;-73
2023/11/02 12:10:48;;;;;;;10.48;2.35;;;17.50;19.40;;;;;;5060697;28;20865;-73
2023/11/02 12:13:14;;;;;;;10.05;1.80;;;17.50;19.20;;;;;;5072434;28;20383;-70
2023/11/02 12:16:01;;;;;;;5.13;1.70;;;17.50;19.50;;;;;;5075886;28;20387;-71
2023/11/02 12:18:34;;;;;;;6.60;2.13;;;17.50;19.40;;;;;;5084137;28;20430;-72
2023/11/02 12:21:04;;;;;;;8.33;1.60;;;17.50;19.50;;;;;;5077242;28;20718;-71
2023/11/02 12:23:35;;;;;;;11.18;2.08;;;17.30;19.50;;;;;;5076075;28;20388;-72
2023/11/02 12:26:03;;;;;;;8.38;2.30;;;17.30;19.60;;;;;;5074081;28;20408;-71
2023/11/02 12:28:42;;;;;;;6.68;1.85;;;17.10;19.90;;;;;;5073884;28;20750;-71
2023/11/02 12:31:11;;;;;;;10.05;1.90;;;17.10;20.20;;;;;;5072617;28;20384;-71
2023/11/02 12:33:37;;;;;;;11.93;2.05;;;17.10;19.90;;;;;;5055240;28;20394;-70
2023/11/02 12:36:04;;;;;;;10.73;1.90;;;17.00;20.00;;;;;;5073217;28;20749;-70
2023/11/02 12:38:37;;;;;;;7.10;1.83;;;16.90;20.50;;;;;;5073449;28;20448;-71
2023/11/02 12:41:05;;;;;;;7.03;1.80;;;16.90;19.90;;;;;;5055431;28;20870;-70
2023/11/02 12:43:39;;;;;;;12.32;2.08;;;17.00;19.50;;;;;;5073714;28;20399;-70
2023/11/02 12:46:08;;;;;;;9.85;2.50;;;17.10;19.60;;;;;;5073399;28;20416;-71
2023/11/02 12:48:36;;;;;;;13.07;2.47;;;17.20;19.60;;;;;;5074962;28;20842;-72
2023/11/02 12:51:20;;;;;;;10.30;2.00;;;17.30;19.50;;;;;;5076562;28;20478;-71
2023/11/02 12:53:48;;;;;;;8.77;2.00;;;17.30;19.00;;;;;;5073734;28;20452;-71
2023/11/02 12:56:23;;;;;;;9.40;2.00;;;17.10;19.20;;;;;;5073183;28;20540;-71
2023/11/02 12:59:06;;;;;;;8.93;2.00;;;17.00;18.60;;;;;;5073149;28;20490;-72
2023/11/02 13:01:55;;;;;;;11.02;2.70;;;17.00;18.90;;;;;;5073161;28;20395;-71
2023/11/02 13:04:28;;;;;;;10.10;2.28;;;17.00;19.10;;;;;;5072894;28;20398;-72